createdAt,value
2018-07-09T00:01:11.061Z,99180.00
2018-07-09T00:03:40.361Z,99181.00
2018-07-09T00:06:09.722Z,99174.00
2018-07-09T00:08:38.859Z,99178.00
2018-07-09T00:11:08.698Z,99181.00
2018-07-09T00:13:38.633Z,99184.00
2018-07-09T00:16:08.143Z,99179.00
2018-07-09T00:18:37.237Z,99184.00
2018-07-09T00:21:06.536Z,99175.00
2018-07-09T00:23:36.549Z,99181.00
2018-07-09T00:26:06.259Z,99178.00
2018-07-09T00:28:35.633Z,99180.00
2018-07-09T00:31:04.817Z,99182.00
2018-07-09T00:33:34.138Z,99178.00
2018-07-09T00:36:03.516Z,99175.00
2018-07-09T00:38:32.617Z,99179.00
2018-07-09T00:47:45.837Z,99177.00
2018-07-09T00:50:15.525Z,99179.00
2018-07-09T00:52:45.116Z,99184.00
2018-07-09T00:55:14.556Z,99177.00
2018-07-09T00:57:44.189Z,99183.00
2018-07-09T01:00:13.579Z,99181.00
2018-07-09T01:02:42.721Z,99181.00
2018-07-09T01:05:11.865Z,99175.00
2018-07-09T01:07:41.270Z,99176.00
2018-07-09T01:10:10.616Z,99171.00
2018-07-09T01:12:40.642Z,99174.00
2018-07-09T01:15:09.669Z,99179.00
2018-07-09T01:17:38.736Z,99176.00
2018-07-09T01:20:08.196Z,99165.00
2018-07-09T01:22:37.328Z,99166.00
2018-07-09T01:25:07.081Z,99168.00
2018-07-09T01:27:37.924Z,99170.00
2018-07-09T01:30:13.760Z,99170.00
2018-07-09T01:32:43.185Z,99169.00
2018-07-09T01:35:13.297Z,99169.00
2018-07-09T01:37:42.873Z,99166.00
2018-07-09T01:40:12.081Z,99172.00
2018-07-09T01:42:41.213Z,99175.00
2018-07-09T01:45:10.293Z,99168.00
2018-07-09T01:47:39.443Z,99162.00
2018-07-09T01:50:08.560Z,99166.00
2018-07-09T01:52:37.671Z,99173.00
2018-07-09T01:55:06.996Z,99167.00
2018-07-09T01:57:36.148Z,99162.00
2018-07-09T02:00:05.689Z,99167.00
2018-07-09T02:02:35.317Z,99163.00
2018-07-09T02:05:04.392Z,99169.00
2018-07-09T02:07:33.560Z,99164.00
2018-07-09T02:10:02.950Z,99162.00
2018-07-09T02:12:32.190Z,99159.00
2018-07-09T02:15:01.481Z,99163.00
2018-07-09T02:17:30.961Z,99158.00
2018-07-09T02:20:00.081Z,99151.00
2018-07-09T02:22:29.176Z,99159.00
2018-07-09T02:24:58.400Z,99160.00
2018-07-09T02:27:27.492Z,99164.00
2018-07-09T02:29:56.609Z,99164.00
2018-07-09T02:32:26.125Z,99157.00
2018-07-09T02:34:55.250Z,99157.00
2018-07-09T02:37:24.417Z,99157.00
2018-07-09T02:39:54.112Z,99157.00
2018-07-09T02:42:23.301Z,99160.00
2018-07-09T02:44:52.412Z,99156.00
2018-07-09T02:47:21.757Z,99154.00
2018-07-09T02:49:51.068Z,99161.00
2018-07-09T02:52:20.421Z,99161.00
2018-07-09T02:54:50.074Z,99160.00
2018-07-09T02:57:19.206Z,99167.00
2018-07-09T02:59:48.373Z,99162.00
2018-07-09T03:02:17.869Z,99168.00
2018-07-09T03:04:47.277Z,99173.00
2018-07-09T03:07:16.362Z,99173.00
2018-07-09T03:09:46.030Z,99175.00
2018-07-09T03:12:15.160Z,99173.00
2018-07-09T03:14:45.601Z,99177.00
2018-07-09T03:17:15.191Z,99185.00
2018-07-09T03:19:44.345Z,99184.00
2018-07-09T03:22:13.485Z,99181.00
2018-07-09T03:24:42.888Z,99184.00
2018-07-09T03:27:12.006Z,99187.00
2018-07-09T03:29:41.164Z,99186.00
2018-07-09T03:32:10.449Z,99185.00
2018-07-09T03:34:39.588Z,99188.00
2018-07-09T03:37:08.724Z,99180.00
2018-07-09T03:39:40.285Z,99183.00
2018-07-09T03:42:09.457Z,99184.00
2018-07-09T03:44:38.594Z,99183.00
2018-07-09T03:47:07.974Z,99183.00
2018-07-09T03:49:38.093Z,99190.00
2018-07-09T03:52:07.378Z,99192.00
2018-07-09T03:54:36.908Z,99196.00
2018-07-09T03:57:06.172Z,99191.00
2018-07-09T03:59:35.772Z,99189.00
2018-07-09T04:02:05.424Z,99185.00
2018-07-09T04:04:34.498Z,99186.00
2018-07-09T04:07:04.646Z,99186.00
2018-07-09T04:09:33.724Z,99184.00
2018-07-09T04:12:02.793Z,99184.00
2018-07-09T04:14:31.888Z,99185.00
2018-07-09T04:17:01.050Z,99185.00
2018-07-09T04:19:30.196Z,99185.00
2018-07-09T04:21:59.646Z,99187.00
2018-07-09T04:24:28.664Z,99187.00
2018-07-09T04:26:57.789Z,99193.00
2018-07-09T04:29:27.216Z,99195.00
2018-07-09T04:31:56.822Z,99195.00
2018-07-09T04:34:25.977Z,99198.00
2018-07-09T04:36:55.349Z,99196.00
2018-07-09T04:39:24.397Z,99194.00
2018-07-09T04:41:53.522Z,99182.00
2018-07-09T04:44:22.952Z,99187.00
2018-07-09T04:46:52.042Z,99187.00
2018-07-09T04:49:21.164Z,99182.00
2018-07-09T04:51:50.613Z,99178.00
2018-07-09T04:54:19.725Z,99173.00
2018-07-09T04:56:48.917Z,99172.00
2018-07-09T04:59:18.305Z,99174.00
2018-07-09T05:01:47.368Z,99172.00
2018-07-09T05:04:16.512Z,99168.00
2018-07-09T05:06:45.877Z,99170.00
2018-07-09T05:09:15.838Z,99170.00
2018-07-09T05:11:44.951Z,99173.00
2018-07-09T05:14:14.066Z,99173.00
2018-07-09T05:16:43.137Z,99169.00
2018-07-09T05:19:12.222Z,99171.00
2018-07-09T05:21:42.022Z,99170.00
2018-07-09T05:24:11.199Z,99177.00
2018-07-09T05:26:40.315Z,99181.00
2018-07-09T05:29:09.465Z,99176.00
2018-07-09T05:31:38.520Z,99173.00
2018-07-09T05:34:08.705Z,99178.00
2018-07-09T05:36:37.788Z,99175.00
2018-07-09T05:39:07.088Z,99179.00
2018-07-09T05:41:36.745Z,99177.00
2018-07-09T05:44:05.842Z,99180.00
2018-07-09T05:46:35.029Z,99175.00
2018-07-09T05:49:04.512Z,99174.00
2018-07-09T05:51:33.646Z,99176.00
2018-07-09T05:54:02.782Z,99180.00
2018-07-09T05:56:32.298Z,99178.00
2018-07-09T05:59:01.569Z,99172.00
2018-07-09T06:01:30.614Z,99169.00
2018-07-09T06:04:00.013Z,99172.00
2018-07-09T06:06:29.185Z,99172.00
2018-07-09T06:08:58.288Z,99171.00
2018-07-09T06:11:27.458Z,99174.00
2018-07-09T06:13:56.585Z,99170.00
2018-07-09T06:16:26.629Z,99162.00
2018-07-09T06:18:56.664Z,99162.00
2018-07-09T06:21:25.814Z,99162.00
2018-07-09T06:23:54.973Z,99164.00
2018-07-09T06:26:24.382Z,99162.00
2018-07-09T06:28:53.656Z,99165.00
2018-07-09T06:31:23.199Z,99168.00
2018-07-09T06:33:52.361Z,99173.00
2018-07-09T06:36:21.445Z,99172.00
2018-07-09T06:38:50.707Z,99165.00
2018-07-09T06:41:20.829Z,99164.00
2018-07-09T06:43:51.141Z,99163.00
2018-07-09T06:46:20.196Z,99161.00
2018-07-09T06:48:54.715Z,99151.00
2018-07-09T06:51:23.833Z,99156.00
2018-07-09T06:53:53.941Z,99154.00
2018-07-09T06:56:23.821Z,99146.00
2018-07-09T06:58:52.946Z,99149.00
2018-07-09T07:01:22.033Z,99145.00
2018-07-09T07:03:51.425Z,99146.00
2018-07-09T07:06:21.040Z,99143.00
2018-07-09T07:08:50.331Z,99140.00
2018-07-09T07:11:20.344Z,99140.00
2018-07-09T07:13:50.181Z,99134.00
2018-07-09T07:16:19.248Z,99132.00
2018-07-09T07:18:49.996Z,99127.00
2018-07-09T07:21:19.293Z,99128.00
2018-07-09T07:23:48.399Z,99133.00
2018-07-09T07:27:47.171Z,99139.00
2018-07-09T07:30:16.675Z,99131.00
2018-07-09T07:32:45.898Z,99131.00
2018-07-09T07:35:15.317Z,99122.00
2018-07-09T07:37:44.437Z,99117.00
2018-07-09T07:40:14.305Z,99107.00
2018-07-09T07:42:43.850Z,99098.00
2018-07-09T07:45:13.801Z,99084.00
2018-07-09T07:47:42.957Z,99064.00
2018-07-09T07:50:12.818Z,99049.00
2018-07-09T07:52:42.165Z,99043.00
2018-07-09T07:55:11.265Z,99049.00
2018-07-09T07:57:40.418Z,99061.00
2018-07-09T08:00:10.604Z,99053.00
2018-07-09T08:02:40.058Z,99042.00
2018-07-09T08:05:10.065Z,99054.00
2018-07-09T08:07:39.144Z,99062.00
2018-07-09T08:10:09.141Z,99058.00
2018-07-09T08:15:08.791Z,99043.00
2018-07-09T08:17:38.749Z,99032.00
2018-07-09T08:20:09.772Z,99033.00
2018-07-09T08:22:38.909Z,99022.00
2018-07-09T08:25:08.261Z,99023.00
2018-07-09T08:27:38.107Z,99022.00
2018-07-09T08:30:08.072Z,99020.00
2018-07-09T08:32:37.928Z,99017.00
2018-07-09T08:35:07.538Z,99025.00
2018-07-09T08:37:36.741Z,99032.00
2018-07-09T08:40:05.820Z,99015.00
2018-07-09T08:42:35.335Z,99021.00
2018-07-09T08:45:04.746Z,99009.00
2018-07-09T08:47:37.322Z,99015.00
2018-07-09T08:50:06.667Z,99024.00
2018-07-09T08:52:35.805Z,99020.00
2018-07-09T08:55:05.927Z,99021.00
2018-07-09T08:57:36.054Z,99021.00
2018-07-09T09:00:05.186Z,99025.00
2018-07-09T09:02:34.411Z,99011.00
2018-07-09T09:05:03.823Z,99006.00
2018-07-09T09:07:33.266Z,99003.00
2018-07-09T09:10:02.576Z,98995.00
2018-07-09T09:12:31.919Z,98989.00
2018-07-09T09:15:01.289Z,99004.00
2018-07-09T09:17:30.409Z,99009.00
2018-07-09T09:19:59.811Z,98999.00
2018-07-09T09:22:29.873Z,99010.00
2018-07-09T09:24:59.033Z,99006.00
2018-07-09T09:27:28.122Z,99019.00
2018-07-09T09:29:58.258Z,99015.00
2018-07-09T09:32:27.382Z,99000.00
2018-07-09T09:34:56.486Z,98998.00
2018-07-09T09:37:25.670Z,98993.00
2018-07-09T09:39:54.747Z,98996.00
2018-07-09T09:42:23.940Z,99001.00
2018-07-09T09:44:53.446Z,99009.00
2018-07-09T09:47:22.606Z,99002.00
2018-07-09T09:49:51.817Z,99003.00
2018-07-09T09:52:21.374Z,99002.00
2018-07-09T09:54:50.883Z,98999.00
2018-07-09T09:57:20.821Z,98987.00
2018-07-09T09:59:51.189Z,98975.00
2018-07-09T10:02:20.312Z,98975.00
2018-07-09T10:04:49.510Z,98969.00
2018-07-09T10:07:18.675Z,98970.00
2018-07-09T10:09:48.144Z,98958.00
2018-07-09T10:12:17.326Z,98965.00
2018-07-09T10:14:47.712Z,98973.00
2018-07-09T10:17:16.786Z,98962.00
2018-07-09T10:19:45.904Z,98967.00
2018-07-09T10:22:15.434Z,98965.00
2018-07-09T10:24:44.604Z,98961.00
2018-07-09T10:27:13.745Z,98968.00
2018-07-09T10:29:44.597Z,98960.00
2018-07-09T10:32:14.388Z,98963.00
2018-07-09T10:34:43.817Z,98968.00
2018-07-09T10:37:12.990Z,98967.00
2018-07-09T10:39:42.795Z,98954.00
2018-07-09T10:42:11.994Z,98949.00
2018-07-09T10:44:42.012Z,98951.00
2018-07-09T10:47:11.243Z,98945.00
2018-07-09T10:49:40.699Z,98946.00
2018-07-09T10:52:10.141Z,98943.00
2018-07-09T10:54:39.771Z,98946.00
2018-07-09T10:57:09.152Z,98941.00
2018-07-09T10:59:38.362Z,98936.00
2018-07-09T11:02:07.545Z,98934.00
2018-07-09T11:04:36.647Z,98930.00
2018-07-09T11:07:05.892Z,98929.00
2018-07-09T11:09:35.851Z,98925.00
2018-07-09T11:12:05.868Z,98925.00
2018-07-09T11:14:36.402Z,98930.00
2018-07-09T11:17:05.629Z,98927.00
2018-07-09T11:19:35.520Z,98938.00
2018-07-09T11:22:06.563Z,98945.00
2018-07-09T11:24:35.925Z,98943.00
2018-07-09T11:27:05.375Z,98946.00
2018-07-09T11:29:34.971Z,98932.00
2018-07-09T11:32:04.808Z,98933.00
2018-07-09T11:34:34.026Z,98930.00
2018-07-09T11:37:04.197Z,98930.00
2018-07-09T11:39:33.397Z,98926.00
2018-07-09T11:42:02.718Z,98935.00
2018-07-09T11:44:32.274Z,98933.00
2018-07-09T11:47:02.663Z,98932.00
2018-07-09T11:49:31.965Z,98926.00
2018-07-09T11:52:01.989Z,98926.00
2018-07-09T11:54:31.985Z,98924.00
2018-07-09T11:57:01.171Z,98931.00
2018-07-09T11:59:30.766Z,98926.00
2018-07-09T12:02:00.071Z,98921.00
2018-07-09T12:04:29.282Z,98925.00
2018-07-09T12:06:59.354Z,98917.00
2018-07-09T12:09:28.551Z,98926.00
2018-07-09T12:11:57.715Z,98925.00
2018-07-09T12:14:26.894Z,98918.00
2018-07-09T12:16:56.102Z,98918.00
2018-07-09T12:19:25.468Z,98913.00
2018-07-09T12:21:56.046Z,98923.00
2018-07-09T12:24:25.226Z,98922.00
2018-07-09T12:26:55.504Z,98930.00
2018-07-09T12:29:25.965Z,98930.00
2018-07-09T12:31:56.224Z,98935.00
2018-07-09T12:34:26.670Z,98927.00
2018-07-09T12:36:55.823Z,98925.00
2018-07-09T12:39:25.622Z,98917.00
2018-07-09T12:41:55.225Z,98916.00
2018-07-09T12:44:24.522Z,98907.00
2018-07-09T12:46:56.568Z,98900.00
2018-07-09T12:49:27.111Z,98910.00
2018-07-09T12:58:43.033Z,98904.00
2018-07-09T13:01:12.274Z,98901.00
2018-07-09T13:03:42.527Z,98902.00
2018-07-09T13:06:12.022Z,98904.00
2018-07-09T13:08:43.657Z,98907.00
2018-07-09T13:11:14.257Z,98897.00
2018-07-09T13:13:46.040Z,98895.00
2018-07-09T13:16:17.400Z,98897.00
2018-07-09T13:18:47.190Z,98895.00
2018-07-09T13:21:19.010Z,98897.00
2018-07-09T13:23:49.141Z,98894.00
2018-07-09T13:26:20.686Z,98889.00
2018-07-09T13:28:50.810Z,98888.00
2018-07-09T13:31:20.013Z,98884.00
2018-07-09T13:33:49.424Z,98893.00
2018-07-09T13:36:19.698Z,98897.00
2018-07-09T13:38:50.032Z,98893.00
2018-07-09T13:41:20.029Z,98886.00
2018-07-09T13:43:49.134Z,98881.00
2018-07-09T13:46:18.407Z,98875.00
2018-07-09T13:48:47.894Z,98877.00
2018-07-09T13:51:17.801Z,98873.00
2018-07-09T13:53:47.009Z,98870.00
2018-07-09T13:56:16.126Z,98862.00
2018-07-09T13:58:45.709Z,98866.00
2018-07-09T14:01:16.121Z,98870.00
2018-07-09T14:03:45.422Z,98867.00
2018-07-09T14:06:15.405Z,98867.00
2018-07-09T14:08:44.567Z,98867.00
2018-07-09T14:11:13.684Z,98868.00
2018-07-09T14:13:43.801Z,98859.00
2018-07-09T14:17:42.670Z,98862.00
2018-07-09T14:20:27.869Z,98865.00
2018-07-09T14:22:57.970Z,98861.00
2018-07-09T14:25:28.062Z,98852.00
2018-07-09T14:27:57.475Z,98858.00
2018-07-09T14:30:26.629Z,98857.00
2018-07-09T14:32:55.915Z,98854.00
2018-07-09T14:35:26.069Z,98853.00
2018-07-09T14:37:55.455Z,98853.00
2018-07-09T14:40:24.821Z,98849.00
2018-07-09T14:42:54.633Z,98851.00
2018-07-09T14:45:24.062Z,98853.00
2018-07-09T14:47:53.335Z,98845.00
2018-07-09T14:50:22.724Z,98846.00
2018-07-09T14:52:51.813Z,98846.00
2018-07-09T14:55:22.187Z,98855.00
2018-07-09T14:57:52.068Z,98851.00
2018-07-09T15:00:21.165Z,98854.00
2018-07-09T15:02:50.244Z,98851.00
2018-07-09T15:05:19.738Z,98849.00
2018-07-09T15:07:48.840Z,98858.00
2018-07-09T15:10:18.018Z,98859.00
2018-07-09T15:12:47.956Z,98860.00
2018-07-09T15:15:18.896Z,98852.00
2018-07-09T15:17:48.376Z,98856.00
2018-07-09T15:20:19.336Z,98858.00
2018-07-09T15:22:49.636Z,98862.00
2018-07-09T15:25:18.668Z,98867.00
2018-07-09T15:27:47.849Z,98867.00
2018-07-09T15:30:17.274Z,98873.00
2018-07-09T15:32:46.713Z,98867.00
2018-07-09T15:35:17.141Z,98867.00
2018-07-09T15:37:46.971Z,98858.00
2018-07-09T15:40:17.391Z,98861.00
2018-07-09T15:42:46.495Z,98859.00
2018-07-09T15:45:15.625Z,98853.00
2018-07-09T15:47:45.008Z,98852.00
2018-07-09T15:50:14.124Z,98855.00
2018-07-09T15:52:43.314Z,98848.00
2018-07-09T15:55:12.745Z,98849.00
2018-07-09T15:57:41.820Z,98848.00
2018-07-09T16:00:10.954Z,98842.00
2018-07-09T16:02:40.059Z,98840.00
2018-07-09T16:05:09.267Z,98842.00
2018-07-09T16:07:39.341Z,98849.00
2018-07-09T16:10:08.798Z,98836.00
2018-07-09T16:12:37.887Z,98839.00
2018-07-09T16:15:07.869Z,98837.00
2018-07-09T16:17:37.609Z,98841.00
2018-07-09T16:20:06.726Z,98842.00
2018-07-09T16:22:35.805Z,98837.00
2018-07-09T16:25:05.312Z,98832.00
2018-07-09T16:27:34.459Z,98827.00
2018-07-09T16:30:03.877Z,98836.00
2018-07-09T16:32:33.213Z,98830.00
2018-07-09T16:35:03.204Z,98832.00
2018-07-09T16:37:32.321Z,98830.00
2018-07-09T16:40:01.418Z,98825.00
2018-07-09T16:42:30.769Z,98819.00
2018-07-09T16:44:59.933Z,98820.00
2018-07-09T16:47:29.085Z,98828.00
2018-07-09T16:49:59.349Z,98823.00
2018-07-09T16:52:28.401Z,98822.00
2018-07-09T16:54:57.511Z,98828.00
2018-07-09T16:57:28.289Z,98836.00
2018-07-09T16:59:57.798Z,98841.00
2018-07-09T17:02:26.917Z,98844.00
2018-07-09T17:04:56.033Z,98840.00
2018-07-09T17:07:25.099Z,98842.00
2018-07-09T17:09:55.266Z,98833.00
2018-07-09T17:12:24.765Z,98834.00
2018-07-09T17:14:54.153Z,98842.00
2018-07-09T17:17:23.176Z,98839.00
2018-07-09T17:19:52.661Z,98841.00
2018-07-09T17:22:21.894Z,98840.00
2018-07-09T17:24:50.976Z,98843.00
2018-07-09T17:27:20.151Z,98842.00
2018-07-09T17:29:49.262Z,98841.00
2018-07-09T17:32:18.429Z,98836.00
2018-07-09T17:34:48.502Z,98839.00
2018-07-09T17:37:17.608Z,98840.00
2018-07-09T17:39:46.708Z,98838.00
2018-07-09T17:42:15.769Z,98837.00
2018-07-09T17:44:44.853Z,98836.00
2018-07-09T17:47:14.057Z,98840.00
2018-07-09T17:49:43.476Z,98846.00
2018-07-09T17:52:12.545Z,98847.00
2018-07-09T17:54:41.758Z,98848.00
2018-07-09T17:57:10.890Z,98841.00
2018-07-09T17:59:40.069Z,98846.00
2018-07-09T18:02:09.176Z,98841.00
2018-07-09T18:04:38.309Z,98843.00
2018-07-09T18:07:07.507Z,98850.00
2018-07-09T18:09:36.631Z,98853.00
2018-07-09T18:12:06.542Z,98856.00
2018-07-09T18:14:35.712Z,98859.00
2018-07-09T18:17:04.954Z,98861.00
2018-07-09T18:19:34.364Z,98863.00
2018-07-09T18:22:03.449Z,98862.00
2018-07-09T18:24:32.677Z,98861.00
2018-07-09T18:27:02.293Z,98860.00
2018-07-09T18:29:31.429Z,98859.00
2018-07-09T18:32:00.553Z,98859.00
2018-07-09T18:34:31.052Z,98857.00
2018-07-09T18:37:00.160Z,98856.00
2018-07-09T18:39:29.260Z,98848.00
2018-07-09T18:41:58.769Z,98847.00
2018-07-09T18:44:27.886Z,98844.00
2018-07-09T18:46:57.108Z,98847.00
2018-07-09T18:49:26.193Z,98843.00
2018-07-09T18:51:55.296Z,98847.00
2018-07-09T18:54:24.437Z,98840.00
2018-07-09T18:56:54.301Z,98843.00
2018-07-09T18:59:23.585Z,98846.00
2018-07-09T19:01:52.732Z,98851.00
2018-07-09T19:04:21.852Z,98854.00
2018-07-09T19:07:11.376Z,98853.00
2018-07-09T19:09:41.156Z,98852.00
2018-07-09T19:12:10.313Z,98852.00
2018-07-09T19:14:43.461Z,98854.00
2018-07-09T19:18:27.379Z,98848.00
2018-07-09T19:21:40.846Z,98848.00
2018-07-09T19:24:10.605Z,98848.00
2018-07-09T19:26:38.745Z,98848.00
2018-07-09T19:29:06.554Z,98850.00
2018-07-09T19:31:35.049Z,98853.00
2018-07-09T19:34:03.324Z,98857.00
2018-07-09T19:36:31.177Z,98856.00
2018-07-09T19:39:00.124Z,98859.00
2018-07-09T19:41:28.185Z,98856.00
2018-07-09T19:43:58.160Z,98857.00
2018-07-09T19:46:28.704Z,98858.00
2018-07-09T19:48:58.513Z,98861.00
2018-07-09T19:51:27.909Z,98861.00
2018-07-09T19:54:00.629Z,98859.00
2018-07-09T19:56:28.288Z,98869.00
2018-07-09T19:58:55.869Z,98875.00
2018-07-09T20:01:23.432Z,98878.00
2018-07-09T20:03:50.956Z,98877.00
2018-07-09T20:06:18.496Z,98879.00
2018-07-09T20:08:51.361Z,98876.00
2018-07-09T20:11:24.167Z,98877.00
2018-07-09T20:14:07.978Z,98878.00
2018-07-09T20:16:40.677Z,98882.00
2018-07-09T20:19:10.674Z,98878.00
2018-07-09T20:21:38.296Z,98876.00
2018-07-09T20:24:05.825Z,98880.00
2018-07-09T20:26:33.404Z,98875.00
2018-07-09T20:29:00.979Z,98878.00
2018-07-09T20:31:29.193Z,98880.00
2018-07-09T20:33:57.661Z,98882.00
2018-07-09T20:36:26.089Z,98890.00
2018-07-09T20:38:53.661Z,98888.00
2018-07-09T20:41:21.446Z,98885.00
2018-07-09T20:43:50.968Z,98890.00
2018-07-09T20:46:18.545Z,98886.00
2018-07-09T20:48:49.387Z,98889.00
2018-07-09T20:51:17.665Z,98892.00
2018-07-09T20:53:47.550Z,98891.00
2018-07-09T20:56:15.877Z,98887.00
2018-07-09T20:58:43.553Z,98892.00
2018-07-09T21:01:11.182Z,98891.00
2018-07-09T21:03:39.996Z,98891.00
2018-07-09T21:06:08.035Z,98892.00
2018-07-09T21:08:36.548Z,98900.00
2018-07-09T21:11:05.408Z,98896.00
2018-07-09T21:13:33.713Z,98897.00
2018-07-09T21:16:02.211Z,98901.00
2018-07-09T21:18:29.937Z,98899.00
2018-07-09T21:21:01.618Z,98902.00
2018-07-09T21:23:30.409Z,98902.00
2018-07-09T21:25:58.241Z,98899.00
2018-07-09T21:28:27.308Z,98895.00
2018-07-09T21:30:55.941Z,98899.00
2018-07-09T21:33:24.585Z,98898.00
2018-07-09T21:35:53.838Z,98903.00
2018-07-09T21:38:21.439Z,98902.00
2018-07-09T21:40:49.724Z,98898.00
2018-07-09T21:43:18.282Z,98895.00
2018-07-09T21:45:46.124Z,98892.00
2018-07-09T21:48:15.087Z,98898.00
2018-07-09T21:50:42.677Z,98898.00
2018-07-09T21:53:10.446Z,98898.00
2018-07-09T21:55:38.484Z,98896.00
2018-07-09T21:58:06.258Z,98892.00
2018-07-09T22:00:33.808Z,98893.00
2018-07-09T22:03:03.013Z,98891.00
2018-07-09T22:05:33.192Z,98888.00
2018-07-09T22:08:01.285Z,98884.00
2018-07-09T22:10:30.147Z,98882.00
2018-07-09T22:12:57.985Z,98880.00
2018-07-09T22:15:27.388Z,98880.00
2018-07-09T22:17:55.257Z,98882.00
2018-07-09T22:20:23.105Z,98879.00
2018-07-09T22:22:51.168Z,98881.00
2018-07-09T22:25:18.760Z,98882.00
2018-07-09T22:27:46.666Z,98878.00
2018-07-09T22:30:20.408Z,98877.00
2018-07-09T22:32:53.353Z,98881.00
2018-07-09T22:35:31.065Z,98883.00
2018-07-09T22:38:01.413Z,98884.00
2018-07-09T22:40:31.845Z,98884.00
2018-07-09T22:43:16.294Z,98877.00
2018-07-09T22:45:46.930Z,98871.00
2018-07-09T22:48:17.504Z,98874.00
2018-07-09T22:50:47.628Z,98872.00
2018-07-09T22:53:17.552Z,98871.00
2018-07-09T22:56:11.611Z,98876.00
2018-07-09T22:58:48.145Z,98877.00
2018-07-09T23:01:19.536Z,98877.00
2018-07-09T23:03:50.736Z,98871.00
2018-07-09T23:06:23.872Z,98873.00
2018-07-09T23:14:04.032Z,98870.00
2018-07-09T23:16:51.312Z,98867.00
2018-07-09T23:22:18.029Z,98867.00
2018-07-09T23:24:45.584Z,98869.00
2018-07-09T23:27:13.135Z,98869.00
2018-07-09T23:29:41.001Z,98873.00
2018-07-09T23:32:08.562Z,98870.00
2018-07-09T23:34:37.248Z,98868.00
2018-07-09T23:37:04.867Z,98866.00
2018-07-09T23:39:32.406Z,98863.00
2018-07-09T23:41:59.971Z,98866.00
2018-07-09T23:44:27.542Z,98865.00
2018-07-09T23:46:55.128Z,98862.00
2018-07-09T23:49:22.744Z,98861.00
2018-07-09T23:51:50.296Z,98859.00
2018-07-09T23:54:17.864Z,98858.00
2018-07-09T23:57:15.700Z,98859.00
